sensor_id;sensor_type;location;lat;lon;timestamp;temperature;humidity
17715;DHT22;8977;50.902;4.314;2023-12-14T00:02:20;12.20;99.90
17715;DHT22;8977;50.902;4.314;2023-12-14T00:04:48;12.30;99.90
17715;DHT22;8977;50.902;4.314;2023-12-14T00:07:15;12.30;99.90
17715;DHT22;8977;50.902;4.314;2023-12-14T00:09:42;12.30;99.90
17715;DHT22;8977;50.902;4.314;2023-12-14T00:12:09;12.30;99.90
17715;DHT22;8977;50.902;4.314;2023-12-14T00:14:36;12.30;99.90
17715;DHT22;8977;50.902;4.314;2023-12-14T00:17:03;12.20;99.90
17715;DHT22;8977;50.902;4.314;2023-12-14T00:19:30;12.30;99.90
17715;DHT22;8977;50.902;4.314;2023-12-14T00:21:59;12.20;99.90
17715;DHT22;8977;50.902;4.314;2023-12-14T00:24:26;12.30;99.90
17715;DHT22;8977;50.902;4.314;2023-12-14T00:26:53;12.30;99.90
17715;DHT22;8977;50.902;4.314;2023-12-14T00:29:19;12.30;99.90
17715;DHT22;8977;50.902;4.314;2023-12-14T00:31:46;12.30;99.90
17715;DHT22;8977;50.902;4.314;2023-12-14T00:34:13;12.20;99.90
17715;DHT22;8977;50.902;4.314;2023-12-14T00:36:40;12.20;99.90
17715;DHT22;8977;50.902;4.314;2023-12-14T00:39:09;12.20;99.90
17715;DHT22;8977;50.902;4.314;2023-12-14T00:41:37;12.20;99.90
17715;DHT22;8977;50.902;4.314;2023-12-14T00:44:04;12.20;99.90
17715;DHT22;8977;50.902;4.314;2023-12-14T00:46:31;12.20;99.90
17715;DHT22;8977;50.902;4.314;2023-12-14T00:48:58;12.20;99.90
17715;DHT22;8977;50.902;4.314;2023-12-14T00:51:25;12.20;99.90
17715;DHT22;8977;50.902;4.314;2023-12-14T00:53:52;12.20;99.90
17715;DHT22;8977;50.902;4.314;2023-12-14T00:56:20;12.20;99.90
17715;DHT22;8977;50.902;4.314;2023-12-14T00:58:47;12.30;99.90
17715;DHT22;8977;50.902;4.314;2023-12-14T01:01:14;12.20;99.90
17715;DHT22;8977;50.902;4.314;2023-12-14T01:03:41;12.20;99.90
17715;DHT22;8977;50.902;4.314;2023-12-14T01:06:08;12.20;99.90
17715;DHT22;8977;50.902;4.314;2023-12-14T01:08:35;12.20;99.90
17715;DHT22;8977;50.902;4.314;2023-12-14T01:11:02;12.20;99.90
17715;DHT22;8977;50.902;4.314;2023-12-14T01:13:30;12.20;99.90
17715;DHT22;8977;50.902;4.314;2023-12-14T01:15:57;12.20;99.90
17715;DHT22;8977;50.902;4.314;2023-12-14T01:18:24;12.20;99.90
17715;DHT22;8977;50.902;4.314;2023-12-14T01:20:51;12.20;99.90
17715;DHT22;8977;50.902;4.314;2023-12-14T01:23:18;12.10;99.90
17715;DHT22;8977;50.902;4.314;2023-12-14T01:25:45;12.20;99.90
17715;DHT22;8977;50.902;4.314;2023-12-14T01:28:12;12.20;99.90
17715;DHT22;8977;50.902;4.314;2023-12-14T01:30:41;12.20;99.90
17715;DHT22;8977;50.902;4.314;2023-12-14T01:33:08;12.10;99.90
17715;DHT22;8977;50.902;4.314;2023-12-14T01:35:35;12.20;99.90
17715;DHT22;8977;50.902;4.314;2023-12-14T01:38:02;12.20;99.90
17715;DHT22;8977;50.902;4.314;2023-12-14T01:40:28;12.20;99.90
17715;DHT22;8977;50.902;4.314;2023-12-14T01:43:06;12.20;99.90
17715;DHT22;8977;50.902;4.314;2023-12-14T01:45:33;12.20;99.90
17715;DHT22;8977;50.902;4.314;2023-12-14T01:48:02;12.20;99.90
17715;DHT22;8977;50.902;4.314;2023-12-14T01:50:29;12.10;99.90
17715;DHT22;8977;50.902;4.314;2023-12-14T01:52:56;12.10;99.90
17715;DHT22;8977;50.902;4.314;2023-12-14T01:55:23;12.10;99.90
17715;DHT22;8977;50.902;4.314;2023-12-14T01:57:51;12.20;99.90
17715;DHT22;8977;50.902;4.314;2023-12-14T02:00:23;12.10;99.90
17715;DHT22;8977;50.902;4.314;2023-12-14T02:02:51;12.10;99.90
17715;DHT22;8977;50.902;4.314;2023-12-14T02:05:20;12.10;99.90
17715;DHT22;8977;50.902;4.314;2023-12-14T02:07:48;12.10;99.90
17715;DHT22;8977;50.902;4.314;2023-12-14T02:10:15;12.10;99.90
17715;DHT22;8977;50.902;4.314;2023-12-14T02:12:42;12.10;99.90
17715;DHT22;8977;50.902;4.314;2023-12-14T02:15:09;12.10;99.90
17715;DHT22;8977;50.902;4.314;2023-12-14T02:17:36;12.10;99.90
17715;DHT22;8977;50.902;4.314;2023-12-14T02:20:05;12.10;99.90
17715;DHT22;8977;50.902;4.314;2023-12-14T02:22:36;12.10;99.90
17715;DHT22;8977;50.902;4.314;2023-12-14T02:25:14;12.10;99.90
17715;DHT22;8977;50.902;4.314;2023-12-14T02:27:41;12.10;99.90
17715;DHT22;8977;50.902;4.314;2023-12-14T02:30:09;12.10;99.90
17715;DHT22;8977;50.902;4.314;2023-12-14T02:32:36;12.10;99.90
17715;DHT22;8977;50.902;4.314;2023-12-14T02:35:04;12.10;99.90
17715;DHT22;8977;50.902;4.314;2023-12-14T02:37:32;12.00;99.90
17715;DHT22;8977;50.902;4.314;2023-12-14T02:40:00;12.10;99.90
17715;DHT22;8977;50.902;4.314;2023-12-14T02:42:27;12.00;99.90
17715;DHT22;8977;50.902;4.314;2023-12-14T02:44:54;12.00;99.90
17715;DHT22;8977;50.902;4.314;2023-12-14T02:47:21;12.00;99.90
17715;DHT22;8977;50.902;4.314;2023-12-14T02:49:48;12.00;99.90
17715;DHT22;8977;50.902;4.314;2023-12-14T02:52:15;12.00;99.90
17715;DHT22;8977;50.902;4.314;2023-12-14T02:54:42;12.00;99.90
17715;DHT22;8977;50.902;4.314;2023-12-14T02:57:10;12.00;99.90
17715;DHT22;8977;50.902;4.314;2023-12-14T02:59:37;12.00;99.90
17715;DHT22;8977;50.902;4.314;2023-12-14T03:02:04;12.00;99.90
17715;DHT22;8977;50.902;4.314;2023-12-14T03:04:32;12.00;99.90
17715;DHT22;8977;50.902;4.314;2023-12-14T03:06:59;12.00;99.90
17715;DHT22;8977;50.902;4.314;2023-12-14T03:09:28;12.00;99.90
17715;DHT22;8977;50.902;4.314;2023-12-14T03:11:55;12.00;99.90
17715;DHT22;8977;50.902;4.314;2023-12-14T03:14:23;12.00;99.90
17715;DHT22;8977;50.902;4.314;2023-12-14T03:16:50;12.00;99.90
17715;DHT22;8977;50.902;4.314;2023-12-14T03:19:18;11.90;99.90
17715;DHT22;8977;50.902;4.314;2023-12-14T03:21:45;11.90;99.90
17715;DHT22;8977;50.902;4.314;2023-12-14T03:24:12;11.80;99.90
17715;DHT22;8977;50.902;4.314;2023-12-14T03:26:39;11.80;99.90
17715;DHT22;8977;50.902;4.314;2023-12-14T03:29:06;11.60;99.90
17715;DHT22;8977;50.902;4.314;2023-12-14T03:31:35;11.70;99.90
17715;DHT22;8977;50.902;4.314;2023-12-14T03:34:02;11.70;99.90
17715;DHT22;8977;50.902;4.314;2023-12-14T03:36:29;11.50;99.90
17715;DHT22;8977;50.902;4.314;2023-12-14T03:38:56;11.40;99.90
17715;DHT22;8977;50.902;4.314;2023-12-14T03:41:23;11.40;99.90
17715;DHT22;8977;50.902;4.314;2023-12-14T03:43:50;11.40;99.90
17715;DHT22;8977;50.902;4.314;2023-12-14T03:46:17;11.50;99.90
17715;DHT22;8977;50.902;4.314;2023-12-14T03:48:45;11.40;99.90
17715;DHT22;8977;50.902;4.314;2023-12-14T03:51:12;11.40;99.90
17715;DHT22;8977;50.902;4.314;2023-12-14T03:53:39;11.40;99.90
17715;DHT22;8977;50.902;4.314;2023-12-14T03:56:07;11.40;99.90
17715;DHT22;8977;50.902;4.314;2023-12-14T03:58:35;11.40;99.90
17715;DHT22;8977;50.902;4.314;2023-12-14T04:01:01;11.40;99.90
17715;DHT22;8977;50.902;4.314;2023-12-14T04:03:29;11.40;99.90
17715;DHT22;8977;50.902;4.314;2023-12-14T04:05:59;11.30;99.90
17715;DHT22;8977;50.902;4.314;2023-12-14T04:08:26;11.30;99.90
17715;DHT22;8977;50.902;4.314;2023-12-14T04:10:53;11.30;99.90
17715;DHT22;8977;50.902;4.314;2023-12-14T04:13:20;11.30;99.90
17715;DHT22;8977;50.902;4.314;2023-12-14T04:15:47;11.30;99.90
17715;DHT22;8977;50.902;4.314;2023-12-14T04:18:14;11.30;99.90
17715;DHT22;8977;50.902;4.314;2023-12-14T04:20:41;11.30;99.90
17715;DHT22;8977;50.902;4.314;2023-12-14T04:23:09;11.20;99.90
17715;DHT22;8977;50.902;4.314;2023-12-14T04:25:36;11.20;99.90
17715;DHT22;8977;50.902;4.314;2023-12-14T04:28:03;11.30;99.90
17715;DHT22;8977;50.902;4.314;2023-12-14T04:30:30;11.30;99.90
17715;DHT22;8977;50.902;4.314;2023-12-14T04:32:57;11.30;99.90
17715;DHT22;8977;50.902;4.314;2023-12-14T04:35:24;11.30;99.90
17715;DHT22;8977;50.902;4.314;2023-12-14T04:37:51;11.30;99.90
17715;DHT22;8977;50.902;4.314;2023-12-14T04:40:20;11.20;99.90
17715;DHT22;8977;50.902;4.314;2023-12-14T04:42:47;11.30;99.90
17715;DHT22;8977;50.902;4.314;2023-12-14T04:45:14;11.30;99.90
17715;DHT22;8977;50.902;4.314;2023-12-14T04:47:42;11.30;99.90
17715;DHT22;8977;50.902;4.314;2023-12-14T04:50:09;11.30;99.90
17715;DHT22;8977;50.902;4.314;2023-12-14T04:52:37;11.30;99.90
17715;DHT22;8977;50.902;4.314;2023-12-14T04:55:05;11.30;99.90
17715;DHT22;8977;50.902;4.314;2023-12-14T04:57:35;11.30;99.90
17715;DHT22;8977;50.902;4.314;2023-12-14T05:00:03;11.30;99.90
17715;DHT22;8977;50.902;4.314;2023-12-14T05:02:32;11.30;99.90
17715;DHT22;8977;50.902;4.314;2023-12-14T05:04:59;11.20;99.90
17715;DHT22;8977;50.902;4.314;2023-12-14T05:07:26;11.30;99.90
17715;DHT22;8977;50.902;4.314;2023-12-14T05:09:53;11.30;99.90
17715;DHT22;8977;50.902;4.314;2023-12-14T05:12:20;11.30;99.90
17715;DHT22;8977;50.902;4.314;2023-12-14T05:14:49;11.30;99.90
17715;DHT22;8977;50.902;4.314;2023-12-14T05:17:16;11.20;99.90
17715;DHT22;8977;50.902;4.314;2023-12-14T05:19:43;11.20;99.90
17715;DHT22;8977;50.902;4.314;2023-12-14T05:22:10;11.20;99.90
17715;DHT22;8977;50.902;4.314;2023-12-14T05:24:38;11.20;99.90
17715;DHT22;8977;50.902;4.314;2023-12-14T05:27:05;11.20;99.90
17715;DHT22;8977;50.902;4.314;2023-12-14T05:29:32;11.20;99.90
17715;DHT22;8977;50.902;4.314;2023-12-14T05:32:01;11.20;99.90
17715;DHT22;8977;50.902;4.314;2023-12-14T05:34:28;11.20;99.90
17715;DHT22;8977;50.902;4.314;2023-12-14T05:36:55;11.20;99.90
17715;DHT22;8977;50.902;4.314;2023-12-14T05:39:22;11.30;99.90
17715;DHT22;8977;50.902;4.314;2023-12-14T05:41:49;11.20;99.90
17715;DHT22;8977;50.902;4.314;2023-12-14T05:44:16;11.20;99.90
17715;DHT22;8977;50.902;4.314;2023-12-14T05:46:43;11.20;99.90
17715;DHT22;8977;50.902;4.314;2023-12-14T05:49:12;11.30;99.90
17715;DHT22;8977;50.902;4.314;2023-12-14T05:51:39;11.20;99.90
17715;DHT22;8977;50.902;4.314;2023-12-14T05:54:06;11.20;99.90
17715;DHT22;8977;50.902;4.314;2023-12-14T05:56:33;11.20;99.90
17715;DHT22;8977;50.902;4.314;2023-12-14T05:59:00;11.20;99.90
17715;DHT22;8977;50.902;4.314;2023-12-14T06:01:27;11.30;99.90
17715;DHT22;8977;50.902;4.314;2023-12-14T06:03:54;11.20;99.90
17715;DHT22;8977;50.902;4.314;2023-12-14T06:06:22;11.30;99.90
17715;DHT22;8977;50.902;4.314;2023-12-14T06:08:49;11.30;99.90
17715;DHT22;8977;50.902;4.314;2023-12-14T06:11:16;11.20;99.90
17715;DHT22;8977;50.902;4.314;2023-12-14T06:13:43;11.20;99.90
17715;DHT22;8977;50.902;4.314;2023-12-14T06:16:10;11.10;99.90
17715;DHT22;8977;50.902;4.314;2023-12-14T06:18:39;11.20;99.90
17715;DHT22;8977;50.902;4.314;2023-12-14T06:21:07;11.10;99.90
17715;DHT22;8977;50.902;4.314;2023-12-14T06:23:36;11.20;99.90
17715;DHT22;8977;50.902;4.314;2023-12-14T06:26:03;11.10;99.90
17715;DHT22;8977;50.902;4.314;2023-12-14T06:28:30;11.10;99.90
17715;DHT22;8977;50.902;4.314;2023-12-14T06:30:57;11.10;99.90
17715;DHT22;8977;50.902;4.314;2023-12-14T06:33:24;11.20;99.90
17715;DHT22;8977;50.902;4.314;2023-12-14T06:35:51;11.10;99.90
17715;DHT22;8977;50.902;4.314;2023-12-14T06:38:18;11.10;99.90
17715;DHT22;8977;50.902;4.314;2023-12-14T06:40:46;11.10;99.90
17715;DHT22;8977;50.902;4.314;2023-12-14T06:43:13;11.10;99.90
17715;DHT22;8977;50.902;4.314;2023-12-14T06:45:40;11.20;99.90
17715;DHT22;8977;50.902;4.314;2023-12-14T06:48:07;11.20;99.90
17715;DHT22;8977;50.902;4.314;2023-12-14T06:50:34;11.20;99.90
17715;DHT22;8977;50.902;4.314;2023-12-14T06:53:00;11.10;99.90
17715;DHT22;8977;50.902;4.314;2023-12-14T06:55:28;11.10;99.90
17715;DHT22;8977;50.902;4.314;2023-12-14T06:57:56;11.10;99.90
17715;DHT22;8977;50.902;4.314;2023-12-14T07:00:23;11.10;99.90
17715;DHT22;8977;50.902;4.314;2023-12-14T07:02:50;11.10;99.90
17715;DHT22;8977;50.902;4.314;2023-12-14T07:05:17;11.10;99.90
17715;DHT22;8977;50.902;4.314;2023-12-14T07:07:44;11.10;99.90
17715;DHT22;8977;50.902;4.314;2023-12-14T07:10:11;11.10;99.90
17715;DHT22;8977;50.902;4.314;2023-12-14T07:12:38;11.10;99.90
17715;DHT22;8977;50.902;4.314;2023-12-14T07:15:07;11.00;99.90
17715;DHT22;8977;50.902;4.314;2023-12-14T07:17:34;11.00;99.90
17715;DHT22;8977;50.902;4.314;2023-12-14T07:20:01;11.10;99.90
17715;DHT22;8977;50.902;4.314;2023-12-14T07:22:28;11.00;99.90
17715;DHT22;8977;50.902;4.314;2023-12-14T07:24:55;11.00;99.90
17715;DHT22;8977;50.902;4.314;2023-12-14T07:27:22;11.00;99.90
17715;DHT22;8977;50.902;4.314;2023-12-14T07:29:48;11.00;99.90
17715;DHT22;8977;50.902;4.314;2023-12-14T07:32:17;10.90;99.90
17715;DHT22;8977;50.902;4.314;2023-12-14T07:34:44;10.90;99.90
17715;DHT22;8977;50.902;4.314;2023-12-14T07:37:11;10.90;99.90
17715;DHT22;8977;50.902;4.314;2023-12-14T07:39:38;10.90;99.90
17715;DHT22;8977;50.902;4.314;2023-12-14T07:42:05;11.00;99.90
17715;DHT22;8977;50.902;4.314;2023-12-14T07:44:32;10.90;99.90
17715;DHT22;8977;50.902;4.314;2023-12-14T07:47:01;10.90;99.90
17715;DHT22;8977;50.902;4.314;2023-12-14T07:49:29;10.90;99.90
17715;DHT22;8977;50.902;4.314;2023-12-14T07:51:56;11.00;99.90
17715;DHT22;8977;50.902;4.314;2023-12-14T07:54:23;11.00;99.90
17715;DHT22;8977;50.902;4.314;2023-12-14T07:56:52;11.00;99.90
17715;DHT22;8977;50.902;4.314;2023-12-14T07:59:19;11.00;99.90
17715;DHT22;8977;50.902;4.314;2023-12-14T08:01:46;11.00;99.90
17715;DHT22;8977;50.902;4.314;2023-12-14T08:04:13;11.00;99.90
17715;DHT22;8977;50.902;4.314;2023-12-14T08:06:42;11.00;99.90
17715;DHT22;8977;50.902;4.314;2023-12-14T08:09:09;11.00;99.90
17715;DHT22;8977;50.902;4.314;2023-12-14T08:11:36;11.00;99.90
17715;DHT22;8977;50.902;4.314;2023-12-14T08:14:03;11.00;99.90
17715;DHT22;8977;50.902;4.314;2023-12-14T08:16:30;11.00;99.90
17715;DHT22;8977;50.902;4.314;2023-12-14T08:18:57;11.00;99.90
17715;DHT22;8977;50.902;4.314;2023-12-14T08:21:24;11.00;99.90
17715;DHT22;8977;50.902;4.314;2023-12-14T08:23:52;11.10;99.90
17715;DHT22;8977;50.902;4.314;2023-12-14T08:26:19;11.10;99.90
17715;DHT22;8977;50.902;4.314;2023-12-14T08:28:46;11.00;99.90
17715;DHT22;8977;50.902;4.314;2023-12-14T08:31:13;11.00;99.90
17715;DHT22;8977;50.902;4.314;2023-12-14T08:33:41;11.00;99.90
17715;DHT22;8977;50.902;4.314;2023-12-14T08:36:08;11.00;99.90
17715;DHT22;8977;50.902;4.314;2023-12-14T08:38:35;11.00;99.90
17715;DHT22;8977;50.902;4.314;2023-12-14T08:41:04;11.00;99.90
17715;DHT22;8977;50.902;4.314;2023-12-14T08:43:30;10.90;99.90
17715;DHT22;8977;50.902;4.314;2023-12-14T08:45:57;10.90;99.90
17715;DHT22;8977;50.902;4.314;2023-12-14T08:48:24;10.90;99.90
17715;DHT22;8977;50.902;4.314;2023-12-14T08:50:53;10.90;99.90
17715;DHT22;8977;50.902;4.314;2023-12-14T08:53:20;10.90;99.90
17715;DHT22;8977;50.902;4.314;2023-12-14T08:55:47;10.90;99.90
17715;DHT22;8977;50.902;4.314;2023-12-14T08:58:16;11.00;99.90
17715;DHT22;8977;50.902;4.314;2023-12-14T09:00:42;11.10;99.90
17715;DHT22;8977;50.902;4.314;2023-12-14T09:03:09;11.00;99.90
17715;DHT22;8977;50.902;4.314;2023-12-14T09:05:36;11.00;99.90
17715;DHT22;8977;50.902;4.314;2023-12-14T09:08:07;11.00;99.90
17715;DHT22;8977;50.902;4.314;2023-12-14T09:10:34;11.10;99.90
17715;DHT22;8977;50.902;4.314;2023-12-14T09:13:01;10.90;99.90
17715;DHT22;8977;50.902;4.314;2023-12-14T09:15:31;10.90;99.90
17715;DHT22;8977;50.902;4.314;2023-12-14T09:17:58;11.00;99.90
17715;DHT22;8977;50.902;4.314;2023-12-14T09:20:25;11.00;99.90
17715;DHT22;8977;50.902;4.314;2023-12-14T09:22:52;11.00;99.90
17715;DHT22;8977;50.902;4.314;2023-12-14T09:25:19;11.10;99.90
17715;DHT22;8977;50.902;4.314;2023-12-14T09:27:46;11.10;99.90
17715;DHT22;8977;50.902;4.314;2023-12-14T09:30:13;11.20;99.90
17715;DHT22;8977;50.902;4.314;2023-12-14T09:32:43;11.20;99.90
17715;DHT22;8977;50.902;4.314;2023-12-14T09:35:10;11.10;99.90
17715;DHT22;8977;50.902;4.314;2023-12-14T09:37:36;11.10;99.90
17715;DHT22;8977;50.902;4.314;2023-12-14T09:40:04;11.10;99.90
17715;DHT22;8977;50.902;4.314;2023-12-14T09:42:37;11.10;99.90
17715;DHT22;8977;50.902;4.314;2023-12-14T09:45:06;11.10;99.90
17715;DHT22;8977;50.902;4.314;2023-12-14T09:47:34;11.10;99.90
17715;DHT22;8977;50.902;4.314;2023-12-14T09:50:02;11.10;99.90
17715;DHT22;8977;50.902;4.314;2023-12-14T09:52:30;11.10;99.90
17715;DHT22;8977;50.902;4.314;2023-12-14T09:54:58;11.10;99.90
17715;DHT22;8977;50.902;4.314;2023-12-14T09:57:25;11.10;99.90
17715;DHT22;8977;50.902;4.314;2023-12-14T09:59:53;11.10;99.90
17715;DHT22;8977;50.902;4.314;2023-12-14T10:02:22;11.10;99.90
17715;DHT22;8977;50.902;4.314;2023-12-14T10:04:51;11.20;99.90
17715;DHT22;8977;50.902;4.314;2023-12-14T10:07:21;11.30;99.90
17715;DHT22;8977;50.902;4.314;2023-12-14T10:09:48;11.20;99.90
17715;DHT22;8977;50.902;4.314;2023-12-14T10:12:15;11.20;99.90
17715;DHT22;8977;50.902;4.314;2023-12-14T10:14:43;11.20;99.90
17715;DHT22;8977;50.902;4.314;2023-12-14T10:17:18;11.20;99.90
17715;DHT22;8977;50.902;4.314;2023-12-14T10:19:46;11.20;99.90
17715;DHT22;8977;50.902;4.314;2023-12-14T10:22:15;11.20;99.90
17715;DHT22;8977;50.902;4.314;2023-12-14T10:24:45;11.30;99.90
17715;DHT22;8977;50.902;4.314;2023-12-14T10:27:13;11.20;99.90
17715;DHT22;8977;50.902;4.314;2023-12-14T10:29:42;11.30;99.90
17715;DHT22;8977;50.902;4.314;2023-12-14T10:32:10;11.30;99.90
17715;DHT22;8977;50.902;4.314;2023-12-14T10:34:37;11.30;99.90
17715;DHT22;8977;50.902;4.314;2023-12-14T10:37:05;11.30;99.90
17715;DHT22;8977;50.902;4.314;2023-12-14T10:39:33;11.30;99.90
17715;DHT22;8977;50.902;4.314;2023-12-14T10:42:04;11.40;99.90
17715;DHT22;8977;50.902;4.314;2023-12-14T10:44:36;11.40;99.90
17715;DHT22;8977;50.902;4.314;2023-12-14T10:47:03;11.40;99.90
17715;DHT22;8977;50.902;4.314;2023-12-14T10:49:32;11.40;99.90
17715;DHT22;8977;50.902;4.314;2023-12-14T10:52:01;11.40;99.90
17715;DHT22;8977;50.902;4.314;2023-12-14T10:54:31;11.30;99.90
17715;DHT22;8977;50.902;4.314;2023-12-14T10:56:59;11.30;99.90
17715;DHT22;8977;50.902;4.314;2023-12-14T10:59:27;11.30;99.90
17715;DHT22;8977;50.902;4.314;2023-12-14T11:01:55;11.30;99.90
17715;DHT22;8977;50.902;4.314;2023-12-14T11:04:23;11.30;99.90
17715;DHT22;8977;50.902;4.314;2023-12-14T11:06:50;11.40;99.90
17715;DHT22;8977;50.902;4.314;2023-12-14T11:09:22;11.40;99.90
17715;DHT22;8977;50.902;4.314;2023-12-14T11:11:56;11.40;99.90
17715;DHT22;8977;50.902;4.314;2023-12-14T11:14:27;11.40;99.90
17715;DHT22;8977;50.902;4.314;2023-12-14T11:16:55;11.40;99.90
17715;DHT22;8977;50.902;4.314;2023-12-14T11:19:27;11.40;99.90
17715;DHT22;8977;50.902;4.314;2023-12-14T11:22:24;11.50;99.90
17715;DHT22;8977;50.902;4.314;2023-12-14T11:24:54;11.40;99.90
17715;DHT22;8977;50.902;4.314;2023-12-14T11:27:26;11.40;99.90
17715;DHT22;8977;50.902;4.314;2023-12-14T11:29:56;11.50;99.90
17715;DHT22;8977;50.902;4.314;2023-12-14T11:32:25;11.50;99.90
17715;DHT22;8977;50.902;4.314;2023-12-14T11:34:52;11.40;99.90
17715;DHT22;8977;50.902;4.314;2023-12-14T11:37:19;11.40;99.90
17715;DHT22;8977;50.902;4.314;2023-12-14T11:39:50;11.40;99.90
17715;DHT22;8977;50.902;4.314;2023-12-14T11:42:18;11.40;99.90
17715;DHT22;8977;50.902;4.314;2023-12-14T11:44:45;11.40;99.90
17715;DHT22;8977;50.902;4.314;2023-12-14T11:47:14;11.40;99.90
17715;DHT22;8977;50.902;4.314;2023-12-14T11:49:41;11.40;99.90
17715;DHT22;8977;50.902;4.314;2023-12-14T11:52:08;11.40;99.90
17715;DHT22;8977;50.902;4.314;2023-12-14T11:54:37;11.30;99.90
17715;DHT22;8977;50.902;4.314;2023-12-14T11:57:04;11.40;99.90
17715;DHT22;8977;50.902;4.314;2023-12-14T11:59:35;11.40;99.90
17715;DHT22;8977;50.902;4.314;2023-12-14T12:02:02;11.40;99.90
17715;DHT22;8977;50.902;4.314;2023-12-14T12:04:30;11.40;99.90
17715;DHT22;8977;50.902;4.314;2023-12-14T12:07:01;11.40;99.90
17715;DHT22;8977;50.902;4.314;2023-12-14T12:09:34;11.50;99.90
17715;DHT22;8977;50.902;4.314;2023-12-14T12:12:01;11.40;99.90
17715;DHT22;8977;50.902;4.314;2023-12-14T12:14:28;11.50;99.90
17715;DHT22;8977;50.902;4.314;2023-12-14T12:16:55;11.50;99.90
17715;DHT22;8977;50.902;4.314;2023-12-14T12:19:22;11.40;99.90
17715;DHT22;8977;50.902;4.314;2023-12-14T12:21:51;11.40;99.90
17715;DHT22;8977;50.902;4.314;2023-12-14T12:24:18;11.40;99.90
17715;DHT22;8977;50.902;4.314;2023-12-14T12:26:44;11.50;99.90
17715;DHT22;8977;50.902;4.314;2023-12-14T12:29:11;11.40;99.90
17715;DHT22;8977;50.902;4.314;2023-12-14T12:31:38;11.50;99.90
17715;DHT22;8977;50.902;4.314;2023-12-14T12:34:05;11.40;99.90
17715;DHT22;8977;50.902;4.314;2023-12-14T12:36:32;11.40;99.90
17715;DHT22;8977;50.902;4.314;2023-12-14T12:39:01;11.40;99.90
17715;DHT22;8977;50.902;4.314;2023-12-14T12:41:28;11.40;99.90
17715;DHT22;8977;50.902;4.314;2023-12-14T12:43:55;11.30;99.90
17715;DHT22;8977;50.902;4.314;2023-12-14T12:46:23;11.30;99.90
17715;DHT22;8977;50.902;4.314;2023-12-14T12:48:50;11.40;99.90
17715;DHT22;8977;50.902;4.314;2023-12-14T12:51:17;11.40;99.90
17715;DHT22;8977;50.902;4.314;2023-12-14T12:53:44;11.40;99.90
17715;DHT22;8977;50.902;4.314;2023-12-14T12:56:12;11.40;99.90
17715;DHT22;8977;50.902;4.314;2023-12-14T12:58:39;11.40;99.90
17715;DHT22;8977;50.902;4.314;2023-12-14T13:01:06;11.40;99.90
17715;DHT22;8977;50.902;4.314;2023-12-14T13:03:33;11.40;99.90
17715;DHT22;8977;50.902;4.314;2023-12-14T13:06:00;11.40;99.90
17715;DHT22;8977;50.902;4.314;2023-12-14T13:08:28;11.40;99.90
17715;DHT22;8977;50.902;4.314;2023-12-14T13:10:56;11.50;99.90
17715;DHT22;8977;50.902;4.314;2023-12-14T13:13:24;11.40;99.90
17715;DHT22;8977;50.902;4.314;2023-12-14T13:15:52;11.40;99.90
17715;DHT22;8977;50.902;4.314;2023-12-14T13:18:19;11.40;99.90
17715;DHT22;8977;50.902;4.314;2023-12-14T13:20:46;11.40;99.90
17715;DHT22;8977;50.902;4.314;2023-12-14T13:23:13;11.40;99.90
17715;DHT22;8977;50.902;4.314;2023-12-14T13:25:40;11.40;99.90
17715;DHT22;8977;50.902;4.314;2023-12-14T13:28:07;11.40;99.90
17715;DHT22;8977;50.902;4.314;2023-12-14T13:30:35;11.40;99.90
17715;DHT22;8977;50.902;4.314;2023-12-14T13:33:02;11.50;99.90
17715;DHT22;8977;50.902;4.314;2023-12-14T13:35:29;11.50;99.90
17715;DHT22;8977;50.902;4.314;2023-12-14T13:37:56;11.50;99.90
17715;DHT22;8977;50.902;4.314;2023-12-14T13:40:23;11.50;99.90
17715;DHT22;8977;50.902;4.314;2023-12-14T13:42:50;11.50;99.90
17715;DHT22;8977;50.902;4.314;2023-12-14T13:45:17;11.50;99.90
17715;DHT22;8977;50.902;4.314;2023-12-14T13:47:45;11.50;99.90
17715;DHT22;8977;50.902;4.314;2023-12-14T13:50:12;11.50;99.90
17715;DHT22;8977;50.902;4.314;2023-12-14T13:52:39;11.50;99.90
17715;DHT22;8977;50.902;4.314;2023-12-14T13:55:06;11.50;99.90
17715;DHT22;8977;50.902;4.314;2023-12-14T13:57:33;11.50;99.90
17715;DHT22;8977;50.902;4.314;2023-12-14T14:00:00;11.50;99.90
17715;DHT22;8977;50.902;4.314;2023-12-14T14:02:27;11.50;99.90
17715;DHT22;8977;50.902;4.314;2023-12-14T14:04:55;11.50;99.90
17715;DHT22;8977;50.902;4.314;2023-12-14T14:07:22;11.60;99.90
17715;DHT22;8977;50.902;4.314;2023-12-14T14:09:49;11.50;99.90
17715;DHT22;8977;50.902;4.314;2023-12-14T14:12:16;11.50;99.90
17715;DHT22;8977;50.902;4.314;2023-12-14T14:14:43;11.50;99.90
17715;DHT22;8977;50.902;4.314;2023-12-14T14:17:10;11.50;99.90
17715;DHT22;8977;50.902;4.314;2023-12-14T14:19:37;11.60;99.90
17715;DHT22;8977;50.902;4.314;2023-12-14T14:22:05;11.50;99.90
17715;DHT22;8977;50.902;4.314;2023-12-14T14:24:32;11.60;99.90
17715;DHT22;8977;50.902;4.314;2023-12-14T14:26:59;11.60;99.90
17715;DHT22;8977;50.902;4.314;2023-12-14T14:29:26;11.50;99.90
17715;DHT22;8977;50.902;4.314;2023-12-14T14:31:53;11.50;99.90
17715;DHT22;8977;50.902;4.314;2023-12-14T14:34:20;11.60;99.90
17715;DHT22;8977;50.902;4.314;2023-12-14T14:36:47;11.60;99.90
17715;DHT22;8977;50.902;4.314;2023-12-14T14:39:16;11.60;99.90
17715;DHT22;8977;50.902;4.314;2023-12-14T14:41:44;11.60;99.90
17715;DHT22;8977;50.902;4.314;2023-12-14T14:44:11;11.50;99.90
17715;DHT22;8977;50.902;4.314;2023-12-14T14:46:38;11.50;99.90
17715;DHT22;8977;50.902;4.314;2023-12-14T14:49:05;11.50;99.90
17715;DHT22;8977;50.902;4.314;2023-12-14T14:51:32;11.60;99.90
17715;DHT22;8977;50.902;4.314;2023-12-14T14:53:59;11.60;99.90
17715;DHT22;8977;50.902;4.314;2023-12-14T14:56:27;11.60;99.90
17715;DHT22;8977;50.902;4.314;2023-12-14T14:58:54;11.60;99.90
17715;DHT22;8977;50.902;4.314;2023-12-14T15:01:21;11.60;99.90
17715;DHT22;8977;50.902;4.314;2023-12-14T15:03:48;11.60;99.90
17715;DHT22;8977;50.902;4.314;2023-12-14T15:06:15;11.60;99.90
17715;DHT22;8977;50.902;4.314;2023-12-14T15:08:42;11.60;99.90
17715;DHT22;8977;50.902;4.314;2023-12-14T15:11:09;11.60;99.90
17715;DHT22;8977;50.902;4.314;2023-12-14T15:13:38;11.50;99.90
17715;DHT22;8977;50.902;4.314;2023-12-14T15:16:05;11.50;99.90
17715;DHT22;8977;50.902;4.314;2023-12-14T15:18:32;11.50;99.90
17715;DHT22;8977;50.902;4.314;2023-12-14T15:21:06;11.50;99.90
17715;DHT22;8977;50.902;4.314;2023-12-14T15:23:33;11.50;99.90
17715;DHT22;8977;50.902;4.314;2023-12-14T15:26:00;11.50;99.90
17715;DHT22;8977;50.902;4.314;2023-12-14T15:28:27;11.50;99.90
17715;DHT22;8977;50.902;4.314;2023-12-14T15:30:55;11.50;99.90
17715;DHT22;8977;50.902;4.314;2023-12-14T15:33:22;11.50;99.90
17715;DHT22;8977;50.902;4.314;2023-12-14T15:35:51;11.50;99.90
17715;DHT22;8977;50.902;4.314;2023-12-14T15:38:18;11.50;99.90
17715;DHT22;8977;50.902;4.314;2023-12-14T15:40:45;11.50;99.90
17715;DHT22;8977;50.902;4.314;2023-12-14T15:43:12;11.50;99.90
17715;DHT22;8977;50.902;4.314;2023-12-14T15:45:39;11.50;99.90
17715;DHT22;8977;50.902;4.314;2023-12-14T15:48:07;11.50;99.90